createdAt,value
2018-04-16T00:00:00.436Z,7.93
2018-04-16T00:02:06.567Z,8.57
2018-04-16T00:04:10.785Z,13.50
2018-04-16T00:06:14.978Z,8.10
2018-04-16T00:08:19.172Z,11.90
2018-04-16T00:10:23.418Z,8.60
2018-04-16T00:12:27.605Z,8.50
2018-04-16T00:14:31.799Z,9.70
2018-04-16T00:16:36.061Z,10.90
2018-04-16T00:18:40.260Z,8.93
2018-04-16T00:20:44.449Z,7.67
2018-04-16T00:22:48.620Z,8.20
2018-04-16T00:24:52.786Z,7.97
2018-04-16T00:26:57.783Z,9.43
2018-04-16T00:29:01.954Z,7.07
2018-04-16T00:31:06.125Z,7.77
2018-04-16T00:33:16.196Z,8.13
2018-04-16T00:35:25.991Z,8.30
2018-04-16T00:37:35.854Z,7.10
2018-04-16T00:39:45.880Z,9.27
2018-04-16T00:41:55.940Z,10.30
2018-04-16T00:44:05.985Z,9.57
2018-04-16T00:46:15.960Z,14.40
2018-04-16T00:48:25.910Z,8.10
2018-04-16T00:50:35.772Z,9.53
2018-04-16T00:52:45.601Z,7.87
2018-04-16T00:54:56.632Z,9.60
2018-04-16T00:57:06.457Z,13.33
2018-04-16T00:59:16.457Z,10.70
2018-04-16T01:01:26.371Z,8.00
2018-04-16T01:03:36.210Z,8.50
2018-04-16T01:05:46.223Z,7.70
2018-04-16T01:07:56.126Z,7.60
2018-04-16T01:10:06.029Z,8.93
2018-04-16T01:12:15.805Z,7.73
2018-04-16T01:14:27.125Z,9.33
2018-04-16T01:16:37.102Z,7.77
2018-04-16T01:18:46.982Z,9.40
2018-04-16T01:20:56.823Z,8.33
2018-04-16T01:23:06.955Z,11.03
2018-04-16T01:25:18.056Z,9.10
2018-04-16T01:27:28.065Z,10.17
2018-04-16T01:29:40.316Z,10.40
2018-04-16T01:31:50.158Z,8.17
2018-04-16T01:34:00.203Z,8.37
2018-04-16T01:36:10.245Z,9.10
2018-04-16T01:38:20.242Z,8.90
2018-04-16T01:40:30.097Z,9.07
2018-04-16T01:42:39.969Z,8.93
2018-04-16T01:44:51.084Z,13.93
2018-04-16T01:47:01.110Z,9.30
2018-04-16T01:49:11.076Z,9.70
2018-04-16T01:51:20.957Z,15.53
2018-04-16T01:53:31.030Z,10.07
2018-04-16T01:55:41.150Z,12.47
2018-04-16T01:57:51.026Z,9.90
2018-04-16T02:00:01.036Z,12.43
2018-04-16T02:02:11.078Z,8.27
2018-04-16T02:04:20.944Z,9.73
2018-04-16T02:06:30.853Z,12.20
2018-04-16T02:08:40.685Z,11.17
2018-04-16T02:10:50.692Z,8.80
2018-04-16T02:13:00.597Z,11.33
2018-04-16T02:15:11.756Z,13.30
2018-04-16T02:17:21.689Z,9.20
2018-04-16T02:19:31.494Z,10.20
2018-04-16T02:21:41.412Z,13.93
2018-04-16T02:23:51.320Z,14.23
2018-04-16T02:26:01.199Z,8.97
2018-04-16T02:28:11.059Z,10.20
2018-04-16T02:30:21.108Z,13.27
2018-04-16T02:32:31.095Z,8.47
2018-04-16T02:34:41.176Z,8.30
2018-04-16T02:36:51.064Z,8.87
2018-04-16T02:39:00.942Z,9.97
2018-04-16T02:41:20.987Z,9.73
2018-04-16T02:43:30.765Z,10.17
2018-04-16T02:45:42.058Z,17.73
2018-04-16T02:47:51.937Z,13.97
2018-04-16T02:50:01.876Z,12.03
2018-04-16T02:52:11.901Z,8.67
2018-04-16T02:54:21.929Z,10.70
2018-04-16T02:56:31.887Z,10.13
2018-04-16T02:58:41.928Z,10.80
2018-04-16T03:00:51.739Z,11.70
2018-04-16T03:03:01.552Z,13.50
2018-04-16T03:05:12.228Z,11.73
2018-04-16T03:07:22.061Z,11.50
2018-04-16T03:09:32.498Z,8.97
2018-04-16T03:11:43.424Z,12.67
2018-04-16T03:14:06.439Z,12.07
2018-04-16T03:16:16.553Z,14.30
2018-04-16T03:18:26.548Z,9.50
2018-04-16T03:20:36.546Z,17.17
2018-04-16T03:22:47.579Z,10.30
2018-04-16T03:24:57.463Z,14.97
2018-04-16T03:27:07.280Z,14.23
2018-04-16T03:29:17.214Z,12.27
2018-04-16T03:31:39.675Z,10.93
2018-04-16T03:33:49.655Z,12.90
2018-04-16T03:35:59.611Z,11.87
2018-04-16T03:38:09.518Z,10.23
2018-04-16T03:40:19.509Z,13.70
2018-04-16T03:42:29.346Z,12.40
2018-04-16T03:44:39.396Z,12.23
2018-04-16T03:46:49.164Z,24.30
2018-04-16T03:49:01.615Z,11.03
2018-04-16T03:51:22.681Z,13.07
2018-04-16T03:53:27.673Z,11.13
2018-04-16T03:55:46.714Z,11.57
2018-04-16T03:57:50.825Z,13.90
2018-04-16T03:59:54.964Z,10.53
2018-04-16T04:01:59.106Z,13.10
2018-04-16T04:04:03.240Z,21.03
2018-04-16T04:06:07.380Z,16.23
2018-04-16T04:08:11.487Z,13.07
2018-04-16T04:10:15.629Z,12.57
2018-04-16T04:12:19.850Z,12.90
2018-04-16T04:14:26.194Z,11.20
2018-04-16T04:16:30.364Z,14.57
2018-04-16T04:18:39.685Z,15.03
2018-04-16T04:20:43.822Z,15.73
2018-04-16T04:22:55.900Z,18.20
2018-04-16T04:25:07.336Z,13.13
2018-04-16T04:27:17.214Z,12.37
2018-04-16T04:29:29.511Z,19.07
2018-04-16T04:31:33.635Z,12.60
2018-04-16T04:33:37.798Z,16.53
2018-04-16T04:35:41.928Z,12.10
2018-04-16T04:37:46.064Z,13.53
2018-04-16T04:39:50.243Z,14.97
2018-04-16T04:41:54.363Z,14.20
2018-04-16T04:43:58.494Z,17.73
2018-04-16T04:46:04.267Z,16.77
2018-04-16T04:48:08.551Z,15.73
2018-04-16T04:50:12.714Z,15.60
2018-04-16T04:52:18.432Z,13.27
2018-04-16T04:54:22.559Z,11.43
2018-04-16T04:56:26.716Z,16.83
2018-04-16T04:58:30.865Z,18.70
2018-04-16T05:00:35.011Z,20.87
2018-04-16T05:02:44.177Z,16.10
2018-04-16T05:04:48.295Z,12.33
2018-04-16T05:06:52.412Z,14.40
2018-04-16T05:08:58.718Z,14.27
2018-04-16T05:11:05.107Z,19.90
2018-04-16T05:13:09.223Z,19.03
2018-04-16T05:15:13.382Z,15.30
2018-04-16T05:17:17.517Z,17.30
2018-04-16T05:19:21.619Z,20.10
2018-04-16T05:21:25.751Z,15.83
2018-04-16T05:23:29.830Z,13.90
2018-04-16T05:25:36.017Z,15.37
2018-04-16T05:27:40.233Z,18.27
2018-04-16T05:29:46.492Z,24.50
2018-04-16T05:31:52.564Z,19.03
2018-04-16T05:33:56.659Z,13.70
2018-04-16T05:36:00.794Z,20.00
2018-04-16T05:38:04.908Z,15.27
2018-04-16T05:40:13.214Z,15.03
2018-04-16T05:42:23.799Z,15.00
2018-04-16T05:44:29.949Z,20.90
2018-04-16T05:46:34.154Z,19.03
2018-04-16T05:48:38.255Z,17.13
2018-04-16T05:50:46.539Z,15.10
2018-04-16T05:52:57.223Z,17.50
2018-04-16T05:55:01.337Z,14.67
2018-04-16T05:57:05.538Z,18.00
2018-04-16T05:59:09.816Z,14.43
2018-04-16T06:01:13.933Z,14.00
2018-04-16T06:03:18.143Z,13.63
2018-04-16T06:05:22.256Z,13.97
2018-04-16T06:07:30.426Z,18.23
2018-04-16T06:09:34.474Z,13.43
2018-04-16T06:11:38.577Z,12.20
2018-04-16T06:13:42.650Z,12.50
2018-04-16T06:15:49.195Z,14.27
2018-04-16T06:17:53.277Z,12.10
2018-04-16T06:20:01.511Z,14.10
2018-04-16T06:22:05.663Z,12.03
2018-04-16T06:24:12.052Z,14.93
2018-04-16T06:26:16.126Z,13.90
2018-04-16T06:28:20.182Z,18.47
2018-04-16T06:30:26.127Z,12.70
2018-04-16T06:32:35.878Z,17.07
2018-04-16T06:34:44.280Z,20.37
2018-04-16T06:36:48.400Z,12.07
2018-04-16T06:38:52.444Z,12.57
2018-04-16T06:40:58.488Z,13.30
2018-04-16T06:43:13.546Z,16.93
2018-04-16T06:45:21.760Z,10.40
2018-04-16T06:47:29.992Z,10.47
2018-04-16T06:49:34.012Z,9.53
2018-04-16T06:51:44.767Z,8.67
2018-04-16T06:53:48.779Z,8.23
2018-04-16T06:55:57.278Z,7.57
2018-04-16T06:58:05.527Z,11.70
2018-04-16T07:00:11.844Z,13.57
2018-04-16T07:02:20.395Z,10.17
2018-04-16T07:04:24.443Z,12.10
2018-04-16T07:06:35.129Z,11.80
2018-04-16T07:08:45.663Z,9.53
2018-04-16T07:10:52.004Z,11.07
2018-04-16T07:12:58.326Z,11.10
2018-04-16T07:15:04.710Z,9.77
2018-04-16T07:17:08.753Z,10.90
2018-04-16T07:19:17.080Z,10.50
2018-04-16T07:21:23.400Z,14.97
2018-04-16T07:23:29.800Z,13.57
2018-04-16T07:25:33.931Z,12.50
2018-04-16T07:27:42.182Z,16.63
2018-04-16T07:29:53.007Z,14.53
2018-04-16T07:31:57.075Z,9.50
2018-04-16T07:34:05.353Z,13.20
2018-04-16T07:36:15.708Z,11.87
2018-04-16T07:38:24.256Z,12.27
2018-04-16T07:40:28.436Z,12.37
2018-04-16T07:42:41.118Z,18.33
2018-04-16T07:44:47.421Z,12.67
2018-04-16T07:46:51.589Z,19.90
2018-04-16T07:49:02.397Z,16.50
2018-04-16T07:51:08.636Z,19.47
2018-04-16T07:53:14.646Z,16.47
2018-04-16T07:55:25.177Z,13.77
2018-04-16T07:57:42.483Z,15.00
2018-04-16T08:00:01.645Z,19.60
2018-04-16T08:02:10.427Z,17.97
2018-04-16T08:04:14.473Z,14.60
2018-04-16T08:06:27.629Z,13.30
2018-04-16T08:08:36.333Z,13.63
2018-04-16T08:10:49.449Z,14.00
2018-04-16T08:12:53.580Z,12.30
2018-04-16T08:15:06.551Z,13.13
2018-04-16T08:17:17.340Z,13.70
2018-04-16T08:19:27.934Z,11.80
2018-04-16T08:21:36.294Z,18.40
2018-04-16T08:23:44.626Z,13.00
2018-04-16T08:25:52.563Z,12.40
2018-04-16T08:27:58.801Z,10.23
2018-04-16T08:30:02.901Z,11.40
2018-04-16T08:32:09.221Z,13.33
2018-04-16T08:34:17.855Z,16.30
2018-04-16T08:36:26.191Z,11.10
2018-04-16T08:38:41.007Z,11.03
2018-04-16T08:40:47.029Z,11.23
2018-04-16T08:42:53.355Z,13.90
2018-04-16T08:45:01.977Z,17.80
2018-04-16T08:47:08.327Z,11.97
2018-04-16T08:49:14.603Z,17.93
2018-04-16T08:51:20.908Z,65.50
2018-04-16T08:53:26.952Z,16.07
2018-04-16T08:55:37.941Z,29.17
2018-04-16T08:57:46.586Z,49.93
2018-04-16T08:59:50.636Z,29.53
2018-04-16T09:01:59.687Z,8.80
2018-04-16T09:04:06.046Z,9.73
2018-04-16T09:06:10.078Z,9.70
2018-04-16T09:08:14.115Z,8.90
2018-04-16T09:10:18.183Z,12.00
2018-04-16T09:12:24.461Z,11.33
2018-04-16T09:14:30.600Z,10.60
2018-04-16T09:16:43.342Z,14.03
2018-04-16T09:18:49.655Z,11.70
2018-04-16T09:20:53.755Z,16.80
2018-04-16T09:23:04.464Z,12.93
2018-04-16T09:25:08.503Z,13.10
2018-04-16T09:27:12.576Z,9.77
2018-04-16T09:29:16.593Z,11.13
2018-04-16T09:31:20.613Z,12.93
2018-04-16T09:33:27.147Z,9.57
2018-04-16T09:35:33.429Z,13.33
2018-04-16T09:37:37.483Z,14.00
2018-04-16T09:39:41.493Z,12.00
2018-04-16T09:41:45.513Z,23.20
2018-04-16T09:43:49.554Z,31.20
2018-04-16T09:45:53.802Z,21.97
2018-04-16T09:47:57.837Z,16.77
2018-04-16T09:50:01.868Z,12.90
2018-04-16T09:52:05.934Z,16.60
2018-04-16T09:54:09.933Z,12.33
2018-04-16T09:56:14.165Z,17.27
2018-04-16T09:58:18.231Z,12.00
2018-04-16T10:00:28.445Z,10.00
2018-04-16T10:02:36.974Z,11.23
2018-04-16T10:04:41.001Z,9.10
2018-04-16T10:06:45.028Z,13.18
2018-04-16T10:08:49.259Z,12.50
2018-04-16T10:10:59.826Z,8.67
2018-04-16T10:13:05.859Z,10.57
2018-04-16T10:15:09.932Z,11.90
2018-04-16T10:17:16.188Z,8.17
2018-04-16T10:19:28.968Z,11.50
2018-04-16T10:21:35.332Z,10.70
2018-04-16T10:23:48.333Z,9.87
2018-04-16T10:25:52.350Z,11.73
2018-04-16T10:27:56.466Z,11.60
2018-04-16T10:30:07.403Z,9.80
2018-04-16T10:32:11.468Z,9.40
2018-04-16T10:34:19.928Z,5.83
2018-04-16T10:36:23.966Z,8.60
2018-04-16T10:38:28.076Z,8.30
2018-04-16T10:40:32.235Z,10.70
2018-04-16T10:42:42.791Z,6.47
2018-04-16T10:44:51.309Z,6.45
2018-04-16T10:46:57.680Z,8.88
2018-04-16T10:49:03.922Z,9.77
2018-04-16T10:51:10.246Z,9.00
2018-04-16T10:53:14.427Z,8.35
2018-04-16T10:55:25.150Z,5.78
2018-04-16T10:57:29.299Z,8.20
2018-04-16T10:59:37.588Z,6.40
2018-04-16T11:01:45.862Z,8.37
2018-04-16T11:04:00.771Z,7.67
2018-04-16T11:06:04.827Z,8.40
2018-04-16T11:08:13.436Z,8.90
2018-04-16T11:10:24.280Z,10.07
2018-04-16T11:12:39.353Z,10.67
2018-04-16T11:14:45.386Z,8.30
2018-04-16T11:16:54.066Z,9.37
2018-04-16T11:18:58.157Z,7.37
2018-04-16T11:21:04.483Z,10.77
2018-04-16T11:23:10.943Z,9.37
2018-04-16T11:25:14.956Z,9.10
2018-04-16T11:27:19.000Z,8.17
2018-04-16T11:29:25.304Z,29.50
2018-04-16T11:31:31.655Z,11.33
2018-04-16T11:33:42.512Z,14.50
2018-04-16T11:35:55.559Z,12.80
2018-04-16T11:38:03.942Z,12.37
2018-04-16T11:40:12.493Z,9.40
2018-04-16T11:42:16.558Z,8.63
2018-04-16T11:44:20.692Z,13.67
2018-04-16T11:46:24.704Z,8.33
2018-04-16T11:48:28.736Z,10.63
2018-04-16T11:50:35.005Z,8.20
2018-04-16T11:52:39.021Z,11.30
2018-04-16T11:54:45.286Z,8.53
2018-04-16T11:56:49.408Z,7.80
2018-04-16T11:58:57.967Z,10.10
2018-04-16T12:01:10.951Z,8.20
2018-04-16T12:03:19.545Z,10.40
2018-04-16T12:05:23.848Z,5.67
2018-04-16T12:07:27.894Z,11.70
2018-04-16T12:09:31.986Z,7.60
2018-04-16T12:11:38.258Z,9.90
2018-04-16T12:13:42.406Z,11.10
2018-04-16T12:15:50.970Z,9.67
2018-04-16T12:17:57.363Z,5.37
2018-04-16T12:20:01.436Z,12.50
2018-04-16T12:22:05.492Z,9.47
2018-04-16T12:24:14.058Z,8.90
2018-04-16T12:26:18.130Z,5.00
2018-04-16T12:28:24.407Z,7.43
2018-04-16T12:30:28.434Z,9.40
2018-04-16T12:32:37.055Z,11.57
2018-04-16T12:34:41.123Z,13.20
2018-04-16T12:36:45.153Z,8.57
2018-04-16T12:38:49.225Z,17.40
2018-04-16T12:40:53.257Z,9.67
2018-04-16T12:42:57.258Z,9.30
2018-04-16T12:45:01.289Z,6.80
2018-04-16T12:47:05.314Z,11.67
2018-04-16T12:49:09.328Z,14.40
2018-04-16T12:51:14.443Z,13.97
2018-04-16T12:53:18.477Z,10.33
2018-04-16T12:55:22.552Z,11.93
2018-04-16T12:57:26.554Z,13.47
2018-04-16T12:59:31.053Z,9.20
2018-04-16T13:01:35.061Z,11.33
2018-04-16T13:03:39.101Z,16.63
2018-04-16T13:05:45.441Z,11.07
2018-04-16T13:07:49.488Z,13.27
2018-04-16T13:09:53.504Z,9.70
2018-04-16T13:11:57.592Z,10.40
2018-04-16T13:14:01.651Z,21.27
2018-04-16T13:16:05.741Z,12.27
2018-04-16T13:18:09.851Z,12.13
2018-04-16T13:20:13.944Z,10.10
2018-04-16T13:22:18.069Z,16.77
2018-04-16T13:24:22.102Z,8.13
2018-04-16T13:26:26.108Z,17.53
2018-04-16T13:28:30.145Z,9.60
2018-04-16T13:30:34.178Z,15.30
2018-04-16T13:32:38.190Z,15.13
2018-04-16T13:34:42.220Z,14.00
2018-04-16T13:36:46.363Z,14.23
2018-04-16T13:38:50.542Z,12.00
2018-04-16T13:40:54.608Z,18.60
2018-04-16T13:42:58.725Z,11.33
2018-04-16T13:45:02.753Z,11.40
2018-04-16T13:47:06.825Z,14.53
2018-04-16T13:49:10.843Z,10.20
2018-04-16T13:51:14.857Z,13.93
2018-04-16T13:53:18.901Z,13.40
2018-04-16T13:55:23.120Z,17.83
2018-04-16T13:57:27.189Z,15.43
2018-04-16T13:59:31.380Z,13.40
2018-04-16T14:01:35.427Z,11.23
2018-04-16T14:03:39.523Z,13.00
2018-04-16T14:05:43.594Z,8.80
2018-04-16T14:07:47.648Z,13.20
2018-04-16T14:09:51.683Z,13.40
2018-04-16T14:11:55.746Z,9.70
2018-04-16T14:13:59.827Z,10.00
2018-04-16T14:16:04.892Z,14.33
2018-04-16T14:18:08.913Z,15.23
2018-04-16T14:20:12.972Z,13.83
2018-04-16T14:22:17.002Z,18.43
2018-04-16T14:24:21.109Z,7.67
2018-04-16T14:26:25.174Z,15.23
2018-04-16T14:28:29.348Z,13.10
2018-04-16T14:30:33.458Z,13.87
2018-04-16T14:32:37.500Z,12.50
2018-04-16T14:34:41.519Z,9.10
2018-04-16T14:36:45.656Z,14.53
2018-04-16T14:38:49.664Z,8.77
2018-04-16T14:40:54.028Z,14.70
2018-04-16T14:42:58.208Z,16.20
2018-04-16T14:45:02.243Z,10.43
2018-04-16T14:47:06.300Z,12.80
2018-04-16T14:49:12.735Z,10.60
2018-04-16T14:51:16.807Z,10.27
2018-04-16T14:53:23.286Z,11.17
2018-04-16T14:55:27.698Z,10.70
2018-04-16T14:57:31.746Z,7.40
2018-04-16T14:59:35.875Z,9.20
2018-04-16T15:01:39.918Z,10.17
2018-04-16T15:03:43.976Z,12.57
2018-04-16T15:05:50.587Z,7.70
2018-04-16T15:07:54.652Z,7.93
2018-04-16T15:10:01.038Z,11.90
2018-04-16T15:12:09.057Z,11.33
2018-04-16T15:14:13.100Z,9.90
2018-04-16T15:16:19.181Z,12.30
2018-04-16T15:18:23.217Z,5.70
2018-04-16T15:20:31.705Z,10.40
2018-04-16T15:22:38.055Z,11.10
2018-04-16T15:24:42.210Z,15.87
2018-04-16T15:26:52.636Z,10.67
2018-04-16T15:28:58.918Z,8.70
2018-04-16T15:31:09.778Z,8.97
2018-04-16T15:33:16.157Z,8.57
2018-04-16T15:35:22.399Z,17.50
2018-04-16T15:37:32.916Z,14.47
2018-04-16T15:39:36.981Z,8.90
2018-04-16T15:41:49.559Z,12.10
2018-04-16T15:43:58.211Z,8.13
2018-04-16T15:46:04.427Z,11.50
2018-04-16T15:48:17.314Z,10.13
2018-04-16T15:50:23.608Z,7.03
2018-04-16T15:52:27.673Z,17.47
2018-04-16T15:54:31.711Z,12.37
2018-04-16T15:56:37.720Z,9.77
2018-04-16T15:58:50.539Z,9.57
2018-04-16T16:00:59.203Z,7.60
2018-04-16T16:03:07.436Z,9.03
2018-04-16T16:05:16.065Z,10.10
2018-04-16T16:07:22.297Z,18.43
2018-04-16T16:09:33.185Z,13.10
2018-04-16T16:11:41.451Z,11.07
2018-04-16T16:13:52.296Z,11.00
2018-04-16T16:16:11.487Z,6.50
2018-04-16T16:18:20.093Z,9.53
2018-04-16T16:20:26.437Z,10.10
2018-04-16T16:22:30.535Z,8.17
2018-04-16T16:24:34.616Z,10.27
2018-04-16T16:26:41.077Z,11.97
2018-04-16T16:28:45.134Z,9.00
2018-04-16T16:30:55.943Z,11.63
2018-04-16T16:33:01.897Z,11.17
2018-04-16T16:35:12.565Z,12.70
2018-04-16T16:37:20.576Z,10.87
2018-04-16T16:39:26.598Z,9.83
2018-04-16T16:41:31.238Z,20.20
2018-04-16T16:43:42.104Z,14.07
2018-04-16T16:45:48.462Z,16.43
2018-04-16T16:47:54.856Z,14.47
2018-04-16T16:50:01.180Z,13.43
2018-04-16T16:52:09.472Z,13.20
2018-04-16T16:54:13.523Z,8.80
2018-04-16T16:56:24.299Z,13.20
2018-04-16T16:58:37.392Z,19.13
2018-04-16T17:00:43.716Z,12.13
2018-04-16T17:02:52.341Z,8.53
2018-04-16T17:04:58.579Z,10.00
2018-04-16T17:07:04.900Z,15.50
2018-04-16T17:09:13.332Z,14.10
2018-04-16T17:11:19.789Z,7.77
2018-04-16T17:13:30.279Z,11.00
2018-04-16T17:15:34.790Z,14.87
2018-04-16T17:17:43.354Z,8.07
2018-04-16T17:19:49.671Z,14.70
2018-04-16T17:22:05.014Z,12.20
2018-04-16T17:24:13.482Z,11.90
2018-04-16T17:26:20.134Z,11.57
2018-04-16T17:28:24.275Z,18.50
2018-04-16T17:30:39.234Z,14.80
2018-04-16T17:32:47.467Z,11.27
2018-04-16T17:34:51.767Z,9.57
2018-04-16T17:36:55.966Z,13.93
2018-04-16T17:39:00.263Z,9.83
2018-04-16T17:41:08.804Z,8.43
2018-04-16T17:43:17.210Z,10.70
2018-04-16T17:45:23.520Z,11.43
2018-04-16T17:47:34.256Z,11.17
2018-04-16T17:49:40.230Z,11.30
2018-04-16T17:51:55.508Z,16.43
2018-04-16T17:54:08.732Z,9.40
2018-04-16T17:56:14.033Z,21.27
2018-04-16T17:58:20.423Z,15.73
2018-04-16T18:00:26.664Z,13.70
2018-04-16T18:02:35.226Z,14.73
2018-04-16T18:04:39.348Z,13.60
2018-04-16T18:06:45.243Z,15.03
2018-04-16T18:08:49.340Z,15.60
2018-04-16T18:10:53.464Z,12.23
2018-04-16T18:13:08.498Z,22.03
2018-04-16T18:15:19.299Z,21.87
2018-04-16T18:17:23.369Z,15.37
2018-04-16T18:19:29.455Z,16.97
2018-04-16T18:21:35.419Z,14.57
2018-04-16T18:23:44.194Z,15.60
2018-04-16T18:25:52.849Z,17.17
2018-04-16T18:28:01.589Z,17.67
2018-04-16T18:30:07.587Z,23.57
2018-04-16T18:32:18.200Z,19.13
2018-04-16T18:34:31.169Z,14.40
2018-04-16T18:36:39.804Z,11.90
2018-04-16T18:38:46.307Z,19.10
2018-04-16T18:40:54.763Z,16.67
2018-04-16T18:43:09.583Z,16.50
2018-04-16T18:45:13.629Z,15.30
2018-04-16T18:47:17.767Z,23.00
2018-04-16T18:49:26.231Z,18.20
2018-04-16T18:51:32.302Z,19.10
2018-04-16T18:53:36.450Z,21.43
2018-04-16T18:55:42.756Z,20.67
2018-04-16T18:57:49.803Z,14.97
2018-04-16T19:00:04.589Z,14.00
2018-04-16T19:02:10.581Z,24.17
2018-04-16T19:04:14.728Z,23.03
2018-04-16T19:06:21.081Z,15.73
2018-04-16T19:08:25.235Z,15.30
2018-04-16T19:10:31.267Z,12.50
2018-04-16T19:12:41.590Z,13.17
2018-04-16T19:14:49.919Z,17.77
2018-04-16T19:17:13.846Z,18.07
2018-04-16T19:19:22.371Z,17.70
2018-04-16T19:21:36.677Z,18.50
2018-04-16T19:23:42.613Z,13.13
2018-04-16T19:25:51.052Z,17.07
2018-04-16T19:28:01.085Z,18.43
2018-04-16T19:30:05.148Z,17.33
2018-04-16T19:32:11.542Z,19.07
2018-04-16T19:34:23.623Z,15.47
2018-04-16T19:36:31.591Z,19.70
2018-04-16T19:38:42.287Z,17.60
2018-04-16T19:40:48.561Z,18.03
2018-04-16T19:42:59.179Z,19.73
2018-04-16T19:45:05.491Z,19.00
2018-04-16T19:47:11.810Z,24.93
2018-04-16T19:49:27.868Z,25.43
2018-04-16T19:51:40.891Z,30.03
2018-04-16T19:53:45.096Z,27.87
2018-04-16T19:55:55.023Z,23.10
2018-04-16T19:58:07.131Z,23.13
2018-04-16T20:00:11.202Z,26.17
2018-04-16T20:02:23.256Z,13.87
2018-04-16T20:04:27.320Z,22.90
2018-04-16T20:06:33.367Z,19.73
2018-04-16T20:08:41.944Z,20.73
2018-04-16T20:10:50.381Z,17.80
2018-04-16T20:12:59.007Z,25.77
2018-04-16T20:15:07.546Z,22.37
2018-04-16T20:17:13.742Z,20.30
2018-04-16T20:19:19.759Z,25.00
2018-04-16T20:21:30.644Z,21.23
2018-04-16T20:23:34.949Z,24.50
2018-04-16T20:25:48.023Z,22.73
2018-04-16T20:27:52.055Z,27.23
2018-04-16T20:29:56.124Z,19.03
2018-04-16T20:32:04.759Z,22.23
2018-04-16T20:34:12.967Z,25.63
2018-04-16T20:36:32.255Z,30.83
2018-04-16T20:38:42.952Z,21.77
2018-04-16T20:40:49.303Z,31.23
2018-04-16T20:42:59.844Z,22.93
2018-04-16T20:45:03.994Z,28.17
2018-04-16T20:47:10.273Z,17.00
2018-04-16T20:49:19.006Z,25.93
2018-04-16T20:51:29.890Z,26.17
2018-04-16T20:53:38.482Z,22.33
2018-04-16T20:55:44.512Z,28.33
2018-04-16T20:57:50.846Z,26.37
2018-04-16T21:00:01.680Z,29.00
2018-04-16T21:02:10.039Z,23.10
2018-04-16T21:04:21.068Z,34.93
2018-04-16T21:06:31.703Z,20.50
2018-04-16T21:08:38.129Z,27.77
2018-04-16T21:10:44.453Z,20.10
2018-04-16T21:12:50.763Z,31.77
2018-04-16T21:14:54.814Z,23.70
2018-04-16T21:16:58.839Z,26.27
2018-04-16T21:19:02.914Z,21.87
2018-04-16T21:21:09.277Z,23.63
2018-04-16T21:23:22.339Z,21.93
2018-04-16T21:25:28.551Z,21.67
2018-04-16T21:27:39.408Z,32.33
2018-04-16T21:29:49.698Z,29.60
2018-04-16T21:31:53.807Z,25.80
2018-04-16T21:34:02.108Z,30.67
2018-04-16T21:36:08.459Z,28.43
2018-04-16T21:38:17.035Z,31.00
2018-04-16T21:40:27.775Z,37.33
2018-04-16T21:42:40.537Z,27.80
2018-04-16T21:44:46.855Z,24.87
2018-04-16T21:46:50.960Z,26.10
2018-04-16T21:48:55.091Z,24.40
2018-04-16T21:50:59.163Z,29.47
2018-04-16T21:53:05.482Z,36.20
2018-04-16T21:55:16.496Z,26.20
2018-04-16T21:57:20.545Z,24.90
2018-04-16T21:59:28.839Z,25.63
2018-04-16T22:01:37.341Z,28.20
2018-04-16T22:03:45.718Z,30.27
2018-04-16T22:06:01.266Z,32.17
2018-04-16T22:08:05.321Z,24.17
2018-04-16T22:10:09.341Z,26.13
2018-04-16T22:12:13.372Z,28.67
2018-04-16T22:14:25.908Z,28.23
2018-04-16T22:16:31.716Z,26.83
2018-04-16T22:18:37.975Z,19.63
2018-04-16T22:20:42.000Z,37.50
2018-04-16T22:22:50.339Z,25.37
2018-04-16T22:25:00.701Z,35.27
2018-04-16T22:27:07.066Z,28.43
2018-04-16T22:29:17.786Z,22.40
2018-04-16T22:31:26.058Z,24.50
2018-04-16T22:33:30.122Z,33.40
2018-04-16T22:35:36.555Z,34.73
2018-04-16T22:37:42.881Z,30.70
2018-04-16T22:39:49.171Z,25.43
2018-04-16T22:41:53.200Z,27.83
2018-04-16T22:43:59.417Z,30.23
2018-04-16T22:46:09.773Z,21.03
2018-04-16T22:48:16.055Z,18.53
2018-04-16T22:50:25.647Z,24.17
2018-04-16T22:52:29.668Z,28.20
2018-04-16T22:54:35.811Z,33.23
2018-04-16T22:56:46.099Z,27.07
2018-04-16T22:58:50.190Z,25.87
2018-04-16T23:00:58.831Z,22.70
2018-04-16T23:03:09.297Z,24.40
2018-04-16T23:05:24.116Z,30.87
2018-04-16T23:07:32.455Z,38.10
2018-04-16T23:09:36.699Z,25.90
2018-04-16T23:11:43.033Z,26.33
2018-04-16T23:13:53.801Z,28.27
2018-04-16T23:15:59.931Z,24.43
2018-04-16T23:18:06.308Z,25.63
2018-04-16T23:20:12.544Z,28.63
2018-04-16T23:22:18.571Z,25.17
2018-04-16T23:24:24.948Z,27.73
2018-04-16T23:26:33.524Z,24.57
2018-04-16T23:28:37.562Z,29.97
2018-04-16T23:30:48.020Z,27.53
2018-04-16T23:32:54.381Z,24.67
2018-04-16T23:35:00.680Z,24.90
2018-04-16T23:37:13.579Z,25.40
2018-04-16T23:39:22.109Z,26.97
2018-04-16T23:41:35.058Z,24.63
2018-04-16T23:43:45.710Z,26.97
2018-04-16T23:45:56.285Z,26.37
2018-04-16T23:48:02.332Z,28.77
2018-04-16T23:50:08.379Z,30.20
2018-04-16T23:52:23.267Z,23.77
2018-04-16T23:54:29.572Z,24.17
2018-04-16T23:56:35.661Z,27.47
2018-04-16T23:58:42.067Z,27.57
